CYQF

Red Deer Regional Airport

Red Deer, Alberta, Canada
METAR CYQF 201300Z 20007KT 15SM FEW250 M03/M04 A2998 RMK CI1 SLP189
Observed Flight Rules
Oct-20 @ 13:00 UTC (36 minutes ago) Visual Flight Rules
Wind Visibility Clouds
200° at 7 knots 15 miles
  • Few at 25,000' AGL
Temperatures Readings
Current -3°C / 27°F
Dewpoint -4°C / 25°F
Humidity 93%
Altimeter 29.98" Hg
Pressure 1018.9 hPa
Elevation 905
METAR CYQF 201300Z 20007KT 15SM FEW250 M03/M04 A2998 RMK CI1 SLP189
Observed Flight Rules
Oct-20 @ 13:00 UTC
(36 minutes ago)
VFR
Wind Visibility
200° at 7 knots 15 miles
Clouds
  • Few at 25,000' AGL
Temperature Dewpoint
-3°C / 27°F -4°C / 25°F
Humidity Altimeter Pressure
93% 29.98" Hg 1018.9 hPa